sensor_id;sensor_type;location;lat;lon;timestamp;P1;durP1;ratioP1;P2;durP2;ratioP2
30299;SDS011;17110;52.602;12.998;2023-02-28T00:01:02;5.00;;;3.83;;
30299;SDS011;17110;52.602;12.998;2023-02-28T00:03:28;5.30;;;4.00;;
30299;SDS011;17110;52.602;12.998;2023-02-28T00:05:54;4.55;;;3.40;;
30299;SDS011;17110;52.602;12.998;2023-02-28T00:08:20;4.70;;;3.23;;
30299;SDS011;17110;52.602;12.998;2023-02-28T00:10:46;4.33;;;3.50;;
30299;SDS011;17110;52.602;12.998;2023-02-28T00:13:11;4.10;;;3.50;;
30299;SDS011;17110;52.602;12.998;2023-02-28T00:15:38;4.20;;;3.35;;
30299;SDS011;17110;52.602;12.998;2023-02-28T00:18:03;4.30;;;3.38;;
30299;SDS011;17110;52.602;12.998;2023-02-28T00:20:29;4.03;;;2.97;;
30299;SDS011;17110;52.602;12.998;2023-02-28T00:22:58;4.10;;;3.00;;
30299;SDS011;17110;52.602;12.998;2023-02-28T00:25:25;3.70;;;3.10;;
30299;SDS011;17110;52.602;12.998;2023-02-28T00:27:51;4.50;;;3.15;;
30299;SDS011;17110;52.602;12.998;2023-02-28T00:30:17;4.00;;;2.90;;
30299;SDS011;17110;52.602;12.998;2023-02-28T00:32:45;5.57;;;3.10;;
30299;SDS011;17110;52.602;12.998;2023-02-28T00:35:11;3.75;;;3.10;;
30299;SDS011;17110;52.602;12.998;2023-02-28T00:37:38;3.42;;;3.13;;
30299;SDS011;17110;52.602;12.998;2023-02-28T00:40:04;4.07;;;2.85;;
30299;SDS011;17110;52.602;12.998;2023-02-28T00:42:31;3.33;;;2.83;;
30299;SDS011;17110;52.602;12.998;2023-02-28T00:44:58;4.18;;;2.90;;
30299;SDS011;17110;52.602;12.998;2023-02-28T00:47:23;3.75;;;3.08;;
30299;SDS011;17110;52.602;12.998;2023-02-28T00:49:49;4.13;;;3.40;;
30299;SDS011;17110;52.602;12.998;2023-02-28T00:52:15;3.90;;;3.33;;
30299;SDS011;17110;52.602;12.998;2023-02-28T00:54:40;4.17;;;3.10;;
30299;SDS011;17110;52.602;12.998;2023-02-28T00:57:06;5.97;;;3.50;;
30299;SDS011;17110;52.602;12.998;2023-02-28T00:59:32;3.27;;;2.83;;
30299;SDS011;17110;52.602;12.998;2023-02-28T01:01:57;3.90;;;3.10;;
30299;SDS011;17110;52.602;12.998;2023-02-28T01:04:23;4.37;;;3.00;;
30299;SDS011;17110;52.602;12.998;2023-02-28T01:06:49;4.90;;;3.10;;
30299;SDS011;17110;52.602;12.998;2023-02-28T01:09:15;5.37;;;3.03;;
30299;SDS011;17110;52.602;12.998;2023-02-28T01:14:16;4.32;;;3.20;;
30299;SDS011;17110;52.602;12.998;2023-02-28T01:16:43;4.78;;;3.17;;
30299;SDS011;17110;52.602;12.998;2023-02-28T01:19:09;4.10;;;3.30;;
30299;SDS011;17110;52.602;12.998;2023-02-28T01:21:35;4.30;;;3.15;;
30299;SDS011;17110;52.602;12.998;2023-02-28T01:24:02;3.63;;;2.85;;
30299;SDS011;17110;52.602;12.998;2023-02-28T01:26:29;4.25;;;3.00;;
30299;SDS011;17110;52.602;12.998;2023-02-28T01:28:55;3.57;;;2.90;;
30299;SDS011;17110;52.602;12.998;2023-02-28T01:31:21;4.15;;;3.00;;
30299;SDS011;17110;52.602;12.998;2023-02-28T01:33:47;3.20;;;2.90;;
30299;SDS011;17110;52.602;12.998;2023-02-28T01:36:14;2.80;;;2.58;;
30299;SDS011;17110;52.602;12.998;2023-02-28T01:38:45;3.97;;;2.72;;
30299;SDS011;17110;52.602;12.998;2023-02-28T01:41:18;4.60;;;3.70;;
30299;SDS011;17110;52.602;12.998;2023-02-28T01:46:13;3.30;;;2.93;;
30299;SDS011;17110;52.602;12.998;2023-02-28T01:49:02;3.70;;;3.00;;
30299;SDS011;17110;52.602;12.998;2023-02-28T01:51:31;3.80;;;2.90;;
30299;SDS011;17110;52.602;12.998;2023-02-28T01:54:03;5.10;;;3.25;;
30299;SDS011;17110;52.602;12.998;2023-02-28T01:56:38;4.18;;;3.20;;
30299;SDS011;17110;52.602;12.998;2023-02-28T01:59:12;3.85;;;2.80;;
30299;SDS011;17110;52.602;12.998;2023-02-28T02:01:42;3.08;;;2.75;;
30299;SDS011;17110;52.602;12.998;2023-02-28T02:04:08;4.78;;;3.70;;
30299;SDS011;17110;52.602;12.998;2023-02-28T02:06:36;3.70;;;3.17;;
30299;SDS011;17110;52.602;12.998;2023-02-28T02:09:05;4.28;;;3.00;;
30299;SDS011;17110;52.602;12.998;2023-02-28T02:11:31;3.97;;;3.00;;
30299;SDS011;17110;52.602;12.998;2023-02-28T02:40:30;4.40;;;2.90;;
30299;SDS011;17110;52.602;12.998;2023-02-28T02:43:12;3.70;;;3.30;;
30299;SDS011;17110;52.602;12.998;2023-02-28T02:45:51;4.35;;;3.15;;
30299;SDS011;17110;52.602;12.998;2023-02-28T02:48:27;4.05;;;3.00;;
30299;SDS011;17110;52.602;12.998;2023-02-28T02:51:01;4.00;;;2.97;;
30299;SDS011;17110;52.602;12.998;2023-02-28T02:53:46;5.45;;;3.78;;
30299;SDS011;17110;52.602;12.998;2023-02-28T02:56:15;4.43;;;3.70;;
30299;SDS011;17110;52.602;12.998;2023-02-28T02:58:44;5.47;;;4.10;;
30299;SDS011;17110;52.602;12.998;2023-02-28T03:01:23;4.88;;;3.47;;
30299;SDS011;17110;52.602;12.998;2023-02-28T03:03:58;4.70;;;3.72;;
30299;SDS011;17110;52.602;12.998;2023-02-28T03:06:27;4.05;;;3.40;;
30299;SDS011;17110;52.602;12.998;2023-02-28T03:08:53;5.53;;;3.80;;
30299;SDS011;17110;52.602;12.998;2023-02-28T03:11:18;5.63;;;4.13;;
30299;SDS011;17110;52.602;12.998;2023-02-28T03:28:02;5.03;;;4.38;;
30299;SDS011;17110;52.602;12.998;2023-02-28T03:33:19;5.17;;;4.30;;
30299;SDS011;17110;52.602;12.998;2023-02-28T03:36:05;5.50;;;3.97;;
30299;SDS011;17110;52.602;12.998;2023-02-28T03:38:49;5.63;;;3.72;;
30299;SDS011;17110;52.602;12.998;2023-02-28T03:41:38;5.13;;;3.88;;
30299;SDS011;17110;52.602;12.998;2023-02-28T03:44:21;4.53;;;3.97;;
30299;SDS011;17110;52.602;12.998;2023-02-28T03:49:33;4.97;;;4.25;;
30299;SDS011;17110;52.602;12.998;2023-02-28T03:52:02;4.85;;;4.32;;
30299;SDS011;17110;52.602;12.998;2023-02-28T03:54:31;5.20;;;4.50;;
30299;SDS011;17110;52.602;12.998;2023-02-28T03:59:59;5.25;;;4.30;;
30299;SDS011;17110;52.602;12.998;2023-02-28T04:02:30;5.47;;;4.53;;
30299;SDS011;17110;52.602;12.998;2023-02-28T04:04:57;4.93;;;4.33;;
30299;SDS011;17110;52.602;12.998;2023-02-28T04:07:23;4.80;;;4.30;;
30299;SDS011;17110;52.602;12.998;2023-02-28T04:09:48;7.28;;;4.28;;
30299;SDS011;17110;52.602;12.998;2023-02-28T04:12:14;4.32;;;3.92;;
30299;SDS011;17110;52.602;12.998;2023-02-28T04:14:40;5.95;;;4.32;;
30299;SDS011;17110;52.602;12.998;2023-02-28T04:17:05;5.28;;;4.05;;
30299;SDS011;17110;52.602;12.998;2023-02-28T04:19:31;4.82;;;4.10;;
30299;SDS011;17110;52.602;12.998;2023-02-28T04:21:57;5.72;;;4.40;;
30299;SDS011;17110;52.602;12.998;2023-02-28T04:24:24;5.45;;;4.60;;
30299;SDS011;17110;52.602;12.998;2023-02-28T04:26:51;5.57;;;4.50;;
30299;SDS011;17110;52.602;12.998;2023-02-28T04:29:23;6.20;;;5.28;;
30299;SDS011;17110;52.602;12.998;2023-02-28T04:31:51;5.18;;;4.55;;
30299;SDS011;17110;52.602;12.998;2023-02-28T04:34:18;5.95;;;4.53;;
30299;SDS011;17110;52.602;12.998;2023-02-28T04:36:45;5.50;;;4.30;;
30299;SDS011;17110;52.602;12.998;2023-02-28T04:39:19;6.90;;;4.70;;
30299;SDS011;17110;52.602;12.998;2023-02-28T04:41:45;5.82;;;4.40;;
30299;SDS011;17110;52.602;12.998;2023-02-28T04:44:12;5.65;;;4.75;;
30299;SDS011;17110;52.602;12.998;2023-02-28T04:46:38;5.50;;;4.35;;
30299;SDS011;17110;52.602;12.998;2023-02-28T04:49:03;4.88;;;4.38;;
30299;SDS011;17110;52.602;12.998;2023-02-28T04:51:29;5.55;;;4.55;;
30299;SDS011;17110;52.602;12.998;2023-02-28T04:53:55;5.15;;;4.40;;
30299;SDS011;17110;52.602;12.998;2023-02-28T04:56:21;5.93;;;4.78;;
30299;SDS011;17110;52.602;12.998;2023-02-28T04:58:47;8.38;;;4.88;;
30299;SDS011;17110;52.602;12.998;2023-02-28T05:03:50;7.53;;;5.20;;
30299;SDS011;17110;52.602;12.998;2023-02-28T05:06:16;6.35;;;4.78;;
30299;SDS011;17110;52.602;12.998;2023-02-28T05:08:42;7.03;;;4.68;;
30299;SDS011;17110;52.602;12.998;2023-02-28T05:11:13;5.70;;;4.67;;
30299;SDS011;17110;52.602;12.998;2023-02-28T05:13:50;7.25;;;5.32;;
30299;SDS011;17110;52.602;12.998;2023-02-28T05:16:17;6.47;;;5.25;;
30299;SDS011;17110;52.602;12.998;2023-02-28T05:18:44;6.70;;;5.57;;
30299;SDS011;17110;52.602;12.998;2023-02-28T05:21:26;6.53;;;5.15;;
30299;SDS011;17110;52.602;12.998;2023-02-28T05:23:55;7.95;;;5.82;;
30299;SDS011;17110;52.602;12.998;2023-02-28T05:26:22;5.88;;;5.25;;
30299;SDS011;17110;52.602;12.998;2023-02-28T05:28:48;6.72;;;5.20;;
30299;SDS011;17110;52.602;12.998;2023-02-28T05:31:14;5.73;;;4.67;;
30299;SDS011;17110;52.602;12.998;2023-02-28T05:33:40;6.32;;;4.40;;
30299;SDS011;17110;52.602;12.998;2023-02-28T05:36:06;6.68;;;5.18;;
30299;SDS011;17110;52.602;12.998;2023-02-28T05:38:32;6.25;;;5.25;;
30299;SDS011;17110;52.602;12.998;2023-02-28T05:40:57;6.23;;;5.40;;
30299;SDS011;17110;52.602;12.998;2023-02-28T05:43:23;5.80;;;5.20;;
30299;SDS011;17110;52.602;12.998;2023-02-28T05:45:49;6.50;;;5.33;;
30299;SDS011;17110;52.602;12.998;2023-02-28T05:48:15;7.47;;;5.30;;
30299;SDS011;17110;52.602;12.998;2023-02-28T05:50:41;8.80;;;5.10;;
30299;SDS011;17110;52.602;12.998;2023-02-28T05:53:09;7.93;;;5.67;;
30299;SDS011;17110;52.602;12.998;2023-02-28T05:55:43;7.15;;;5.15;;
30299;SDS011;17110;52.602;12.998;2023-02-28T05:58:09;8.25;;;5.70;;
30299;SDS011;17110;52.602;12.998;2023-02-28T06:00:35;6.90;;;5.47;;
30299;SDS011;17110;52.602;12.998;2023-02-28T06:03:01;8.60;;;5.85;;
30299;SDS011;17110;52.602;12.998;2023-02-28T06:05:27;6.13;;;5.17;;
30299;SDS011;17110;52.602;12.998;2023-02-28T06:07:53;6.68;;;5.43;;
30299;SDS011;17110;52.602;12.998;2023-02-28T06:10:18;6.63;;;5.60;;
30299;SDS011;17110;52.602;12.998;2023-02-28T06:12:44;6.05;;;5.25;;
30299;SDS011;17110;52.602;12.998;2023-02-28T06:15:13;6.88;;;5.40;;
30299;SDS011;17110;52.602;12.998;2023-02-28T06:17:41;8.50;;;5.78;;
30299;SDS011;17110;52.602;12.998;2023-02-28T06:20:07;6.65;;;5.53;;
30299;SDS011;17110;52.602;12.998;2023-02-28T06:22:37;7.40;;;5.45;;
30299;SDS011;17110;52.602;12.998;2023-02-28T06:25:03;8.93;;;6.60;;
30299;SDS011;17110;52.602;12.998;2023-02-28T06:27:30;20.45;;;15.00;;
30299;SDS011;17110;52.602;12.998;2023-02-28T06:29:56;7.95;;;6.50;;
30299;SDS011;17110;52.602;12.998;2023-02-28T06:32:22;10.63;;;8.53;;
30299;SDS011;17110;52.602;12.998;2023-02-28T06:34:48;9.87;;;8.43;;
30299;SDS011;17110;52.602;12.998;2023-02-28T06:37:15;9.43;;;6.75;;
30299;SDS011;17110;52.602;12.998;2023-02-28T06:39:41;9.15;;;6.88;;
30299;SDS011;17110;52.602;12.998;2023-02-28T06:42:07;6.45;;;5.47;;
30299;SDS011;17110;52.602;12.998;2023-02-28T06:44:32;7.90;;;5.80;;
30299;SDS011;17110;52.602;12.998;2023-02-28T06:47:00;8.90;;;5.90;;
30299;SDS011;17110;52.602;12.998;2023-02-28T06:49:30;7.00;;;6.00;;
30299;SDS011;17110;52.602;12.998;2023-02-28T06:51:57;6.95;;;5.80;;
30299;SDS011;17110;52.602;12.998;2023-02-28T06:54:23;9.30;;;6.40;;
30299;SDS011;17110;52.602;12.998;2023-02-28T06:56:49;7.57;;;6.05;;
30299;SDS011;17110;52.602;12.998;2023-02-28T06:59:15;7.27;;;5.93;;
30299;SDS011;17110;52.602;12.998;2023-02-28T07:01:42;7.47;;;6.70;;
30299;SDS011;17110;52.602;12.998;2023-02-28T07:04:07;8.03;;;6.60;;
30299;SDS011;17110;52.602;12.998;2023-02-28T07:06:33;9.00;;;7.37;;
30299;SDS011;17110;52.602;12.998;2023-02-28T07:08:59;12.43;;;9.13;;
30299;SDS011;17110;52.602;12.998;2023-02-28T07:11:25;11.40;;;9.70;;
30299;SDS011;17110;52.602;12.998;2023-02-28T07:13:55;12.90;;;9.40;;
30299;SDS011;17110;52.602;12.998;2023-02-28T07:16:22;9.85;;;8.48;;
30299;SDS011;17110;52.602;12.998;2023-02-28T07:18:49;9.13;;;7.17;;
30299;SDS011;17110;52.602;12.998;2023-02-28T07:21:17;9.48;;;7.50;;
30299;SDS011;17110;52.602;12.998;2023-02-28T07:23:42;9.23;;;7.67;;
30299;SDS011;17110;52.602;12.998;2023-02-28T07:26:10;8.07;;;6.87;;
30299;SDS011;17110;52.602;12.998;2023-02-28T07:28:39;9.05;;;6.40;;
30299;SDS011;17110;52.602;12.998;2023-02-28T07:31:07;7.20;;;5.90;;
30299;SDS011;17110;52.602;12.998;2023-02-28T07:33:34;7.10;;;5.68;;
30299;SDS011;17110;52.602;12.998;2023-02-28T07:36:01;6.50;;;5.10;;
30299;SDS011;17110;52.602;12.998;2023-02-28T07:38:35;5.97;;;5.18;;
30299;SDS011;17110;52.602;12.998;2023-02-28T07:41:02;5.50;;;4.82;;
30299;SDS011;17110;52.602;12.998;2023-02-28T07:43:31;8.18;;;5.20;;
30299;SDS011;17110;52.602;12.998;2023-02-28T07:46:05;6.63;;;5.95;;
30299;SDS011;17110;52.602;12.998;2023-02-28T07:48:33;6.47;;;5.37;;
30299;SDS011;17110;52.602;12.998;2023-02-28T07:50:59;7.55;;;5.00;;
30299;SDS011;17110;52.602;12.998;2023-02-28T07:53:26;6.70;;;5.15;;
30299;SDS011;17110;52.602;12.998;2023-02-28T07:55:56;8.70;;;7.40;;
30299;SDS011;17110;52.602;12.998;2023-02-28T07:58:23;7.68;;;6.57;;
30299;SDS011;17110;52.602;12.998;2023-02-28T08:04:01;7.90;;;7.00;;
30299;SDS011;17110;52.602;12.998;2023-02-28T08:06:32;9.68;;;6.95;;
30299;SDS011;17110;52.602;12.998;2023-02-28T08:09:03;9.10;;;6.60;;
30299;SDS011;17110;52.602;12.998;2023-02-28T08:11:31;8.30;;;6.63;;
30299;SDS011;17110;52.602;12.998;2023-02-28T08:13:59;8.77;;;7.00;;
30299;SDS011;17110;52.602;12.998;2023-02-28T08:16:29;7.68;;;6.15;;
30299;SDS011;17110;52.602;12.998;2023-02-28T08:36:21;7.40;;;5.82;;
30299;SDS011;17110;52.602;12.998;2023-02-28T08:39:20;6.63;;;5.80;;
30299;SDS011;17110;52.602;12.998;2023-02-28T08:42:16;7.38;;;5.88;;
30299;SDS011;17110;52.602;12.998;2023-02-28T09:21:03;4.50;;;3.08;;
30299;SDS011;17110;52.602;12.998;2023-02-28T09:24:09;4.65;;;3.45;;
30299;SDS011;17110;52.602;12.998;2023-02-28T09:27:04;2.70;;;2.28;;
30299;SDS011;17110;52.602;12.998;2023-02-28T09:29:38;3.63;;;2.30;;
30299;SDS011;17110;52.602;12.998;2023-02-28T09:32:13;3.40;;;2.38;;
30299;SDS011;17110;52.602;12.998;2023-02-28T09:34:54;3.72;;;2.42;;
30299;SDS011;17110;52.602;12.998;2023-02-28T09:37:20;5.40;;;2.30;;
30299;SDS011;17110;52.602;12.998;2023-02-28T09:39:48;5.32;;;2.58;;
30299;SDS011;17110;52.602;12.998;2023-02-28T09:42:34;3.10;;;2.30;;
30299;SDS011;17110;52.602;12.998;2023-02-28T09:45:06;4.53;;;2.58;;
30299;SDS011;17110;52.602;12.998;2023-02-28T09:54:24;2.85;;;2.05;;
30299;SDS011;17110;52.602;12.998;2023-02-28T09:56:56;6.78;;;4.22;;
30299;SDS011;17110;52.602;12.998;2023-02-28T10:05:15;2.63;;;2.40;;
30299;SDS011;17110;52.602;12.998;2023-02-28T10:10:51;3.33;;;2.70;;
30299;SDS011;17110;52.602;12.998;2023-02-28T10:13:51;2.95;;;2.10;;
30299;SDS011;17110;52.602;12.998;2023-02-28T10:22:39;2.88;;;2.10;;
30299;SDS011;17110;52.602;12.998;2023-02-28T10:25:19;3.65;;;2.40;;
30299;SDS011;17110;52.602;12.998;2023-02-28T10:27:52;4.03;;;2.45;;
30299;SDS011;17110;52.602;12.998;2023-02-28T10:30:26;6.50;;;4.40;;
30299;SDS011;17110;52.602;12.998;2023-02-28T10:32:53;6.45;;;4.57;;
30299;SDS011;17110;52.602;12.998;2023-02-28T10:35:22;4.25;;;2.50;;
30299;SDS011;17110;52.602;12.998;2023-02-28T10:37:57;3.50;;;2.30;;
30299;SDS011;17110;52.602;12.998;2023-02-28T10:40:45;3.75;;;2.33;;
30299;SDS011;17110;52.602;12.998;2023-02-28T10:43:17;3.25;;;2.30;;
30299;SDS011;17110;52.602;12.998;2023-02-28T10:49:24;3.83;;;2.50;;
30299;SDS011;17110;52.602;12.998;2023-02-28T10:52:38;3.20;;;2.35;;
30299;SDS011;17110;52.602;12.998;2023-02-28T11:07:37;5.20;;;2.58;;
30299;SDS011;17110;52.602;12.998;2023-02-28T11:13:46;3.33;;;2.63;;
30299;SDS011;17110;52.602;12.998;2023-02-28T11:16:34;5.20;;;2.92;;
30299;SDS011;17110;52.602;12.998;2023-02-28T11:19:38;3.67;;;2.75;;
30299;SDS011;17110;52.602;12.998;2023-02-28T11:22:48;3.58;;;2.70;;
30299;SDS011;17110;52.602;12.998;2023-02-28T11:29:37;4.43;;;2.70;;
30299;SDS011;17110;52.602;12.998;2023-02-28T11:40:24;5.05;;;3.17;;
30299;SDS011;17110;52.602;12.998;2023-02-28T11:46:20;4.22;;;3.00;;
30299;SDS011;17110;52.602;12.998;2023-02-28T12:02:03;4.47;;;2.90;;
30299;SDS011;17110;52.602;12.998;2023-02-28T12:07:50;3.63;;;2.50;;
30299;SDS011;17110;52.602;12.998;2023-02-28T12:17:28;4.45;;;2.70;;
30299;SDS011;17110;52.602;12.998;2023-02-28T12:25:22;3.33;;;2.83;;
30299;SDS011;17110;52.602;12.998;2023-02-28T12:27:56;4.47;;;2.70;;
30299;SDS011;17110;52.602;12.998;2023-02-28T12:37:12;3.83;;;2.80;;
30299;SDS011;17110;52.602;12.998;2023-02-28T12:39:48;3.40;;;2.72;;
30299;SDS011;17110;52.602;12.998;2023-02-28T12:42:28;4.18;;;3.22;;
30299;SDS011;17110;52.602;12.998;2023-02-28T12:45:09;4.55;;;3.10;;
30299;SDS011;17110;52.602;12.998;2023-02-28T12:48:14;3.92;;;2.92;;
30299;SDS011;17110;52.602;12.998;2023-02-28T12:50:48;3.63;;;2.80;;
30299;SDS011;17110;52.602;12.998;2023-02-28T12:58:40;4.13;;;2.72;;
30299;SDS011;17110;52.602;12.998;2023-02-28T13:10:00;4.90;;;2.97;;
30299;SDS011;17110;52.602;12.998;2023-02-28T13:12:29;3.97;;;3.30;;
30299;SDS011;17110;52.602;12.998;2023-02-28T13:15:28;4.20;;;3.47;;
30299;SDS011;17110;52.602;12.998;2023-02-28T13:17:53;3.88;;;2.85;;
30299;SDS011;17110;52.602;12.998;2023-02-28T13:20:27;5.28;;;3.13;;
30299;SDS011;17110;52.602;12.998;2023-02-28T13:22:58;5.30;;;3.37;;
30299;SDS011;17110;52.602;12.998;2023-02-28T13:28:09;4.90;;;3.00;;
30299;SDS011;17110;52.602;12.998;2023-02-28T13:33:37;3.95;;;2.97;;
30299;SDS011;17110;52.602;12.998;2023-02-28T13:36:24;4.13;;;3.33;;
30299;SDS011;17110;52.602;12.998;2023-02-28T13:38:55;4.07;;;3.13;;
30299;SDS011;17110;52.602;12.998;2023-02-28T13:41:47;4.32;;;3.20;;
30299;SDS011;17110;52.602;12.998;2023-02-28T13:49:28;5.15;;;3.55;;
30299;SDS011;17110;52.602;12.998;2023-02-28T13:54:43;4.85;;;3.30;;
30299;SDS011;17110;52.602;12.998;2023-02-28T14:11:46;4.97;;;3.38;;
30299;SDS011;17110;52.602;12.998;2023-02-28T14:17:00;4.50;;;3.25;;
30299;SDS011;17110;52.602;12.998;2023-02-28T14:19:31;4.82;;;3.42;;
30299;SDS011;17110;52.602;12.998;2023-02-28T14:24:47;4.90;;;3.60;;
30299;SDS011;17110;52.602;12.998;2023-02-28T14:33:08;4.50;;;3.13;;
30299;SDS011;17110;52.602;12.998;2023-02-28T14:38:52;6.03;;;3.00;;
30299;SDS011;17110;52.602;12.998;2023-02-28T14:41:21;4.07;;;3.28;;
30299;SDS011;17110;52.602;12.998;2023-02-28T14:43:55;5.38;;;3.20;;
30299;SDS011;17110;52.602;12.998;2023-02-28T14:46:23;3.58;;;3.03;;
30299;SDS011;17110;52.602;12.998;2023-02-28T14:48:53;3.97;;;3.00;;
30299;SDS011;17110;52.602;12.998;2023-02-28T14:51:20;3.50;;;3.20;;
30299;SDS011;17110;52.602;12.998;2023-02-28T14:53:49;3.58;;;2.83;;
30299;SDS011;17110;52.602;12.998;2023-02-28T14:56:22;3.70;;;2.80;;
30299;SDS011;17110;52.602;12.998;2023-02-28T14:58:51;6.18;;;3.20;;
30299;SDS011;17110;52.602;12.998;2023-02-28T15:01:19;3.60;;;2.60;;
30299;SDS011;17110;52.602;12.998;2023-02-28T15:03:47;3.83;;;2.92;;
30299;SDS011;17110;52.602;12.998;2023-02-28T15:06:22;3.47;;;2.60;;
30299;SDS011;17110;52.602;12.998;2023-02-28T15:09:01;3.78;;;2.45;;
30299;SDS011;17110;52.602;12.998;2023-02-28T15:11:36;4.88;;;2.80;;
30299;SDS011;17110;52.602;12.998;2023-02-28T15:14:04;5.95;;;2.97;;
30299;SDS011;17110;52.602;12.998;2023-02-28T15:16:36;4.78;;;3.08;;
30299;SDS011;17110;52.602;12.998;2023-02-28T15:19:19;4.13;;;3.10;;
30299;SDS011;17110;52.602;12.998;2023-02-28T15:21:54;3.83;;;3.00;;
30299;SDS011;17110;52.602;12.998;2023-02-28T15:24:42;4.07;;;2.92;;
30299;SDS011;17110;52.602;12.998;2023-02-28T15:27:12;4.57;;;3.13;;
30299;SDS011;17110;52.602;12.998;2023-02-28T15:29:47;4.80;;;3.10;;
30299;SDS011;17110;52.602;12.998;2023-02-28T15:32:29;3.97;;;2.67;;
30299;SDS011;17110;52.602;12.998;2023-02-28T15:34:55;3.67;;;2.97;;
30299;SDS011;17110;52.602;12.998;2023-02-28T15:37:29;4.22;;;3.03;;
30299;SDS011;17110;52.602;12.998;2023-02-28T15:40:44;4.22;;;2.65;;
30299;SDS011;17110;52.602;12.998;2023-02-28T15:48:32;4.87;;;2.97;;
30299;SDS011;17110;52.602;12.998;2023-02-28T15:53:44;4.10;;;2.88;;
30299;SDS011;17110;52.602;12.998;2023-02-28T15:56:32;3.40;;;2.50;;
30299;SDS011;17110;52.602;12.998;2023-02-28T15:59:04;3.63;;;2.90;;
30299;SDS011;17110;52.602;12.998;2023-02-28T16:01:32;4.30;;;2.73;;
30299;SDS011;17110;52.602;12.998;2023-02-28T16:04:00;3.08;;;2.50;;
30299;SDS011;17110;52.602;12.998;2023-02-28T16:06:43;5.43;;;2.90;;
30299;SDS011;17110;52.602;12.998;2023-02-28T16:09:11;5.35;;;2.92;;
30299;SDS011;17110;52.602;12.998;2023-02-28T16:11:40;4.05;;;2.83;;
30299;SDS011;17110;52.602;12.998;2023-02-28T16:14:13;3.75;;;3.03;;
30299;SDS011;17110;52.602;12.998;2023-02-28T16:16:49;4.85;;;2.95;;
30299;SDS011;17110;52.602;12.998;2023-02-28T16:19:17;4.55;;;2.90;;
30299;SDS011;17110;52.602;12.998;2023-02-28T16:21:43;4.65;;;3.35;;
30299;SDS011;17110;52.602;12.998;2023-02-28T16:24:09;4.07;;;2.50;;
30299;SDS011;17110;52.602;12.998;2023-02-28T16:26:35;3.97;;;2.63;;
30299;SDS011;17110;52.602;12.998;2023-02-28T16:29:04;3.65;;;2.53;;
30299;SDS011;17110;52.602;12.998;2023-02-28T16:31:31;4.10;;;2.70;;
30299;SDS011;17110;52.602;12.998;2023-02-28T16:34:00;3.80;;;2.77;;
30299;SDS011;17110;52.602;12.998;2023-02-28T16:36:26;6.90;;;5.10;;
30299;SDS011;17110;52.602;12.998;2023-02-28T16:38:53;7.78;;;5.47;;
30299;SDS011;17110;52.602;12.998;2023-02-28T16:41:20;6.05;;;4.50;;
30299;SDS011;17110;52.602;12.998;2023-02-28T16:43:50;4.30;;;3.53;;
30299;SDS011;17110;52.602;12.998;2023-02-28T16:46:18;3.27;;;2.60;;
30299;SDS011;17110;52.602;12.998;2023-02-28T16:48:45;4.60;;;2.80;;
30299;SDS011;17110;52.602;12.998;2023-02-28T16:51:15;4.47;;;3.10;;
30299;SDS011;17110;52.602;12.998;2023-02-28T16:53:42;5.10;;;2.40;;
30299;SDS011;17110;52.602;12.998;2023-02-28T16:56:14;4.65;;;2.60;;
30299;SDS011;17110;52.602;12.998;2023-02-28T16:58:42;4.60;;;2.80;;
30299;SDS011;17110;52.602;12.998;2023-02-28T17:01:12;4.72;;;3.20;;
30299;SDS011;17110;52.602;12.998;2023-02-28T17:03:38;4.25;;;2.80;;
30299;SDS011;17110;52.602;12.998;2023-02-28T17:06:05;4.57;;;3.30;;
30299;SDS011;17110;52.602;12.998;2023-02-28T17:08:38;4.53;;;3.28;;
30299;SDS011;17110;52.602;12.998;2023-02-28T17:11:04;4.40;;;3.10;;
30299;SDS011;17110;52.602;12.998;2023-02-28T17:13:30;3.97;;;3.00;;
30299;SDS011;17110;52.602;12.998;2023-02-28T17:15:57;3.87;;;2.83;;
30299;SDS011;17110;52.602;12.998;2023-02-28T17:18:23;4.00;;;2.70;;
30299;SDS011;17110;52.602;12.998;2023-02-28T17:20:49;3.63;;;2.40;;
30299;SDS011;17110;52.602;12.998;2023-02-28T17:23:15;3.77;;;2.40;;
30299;SDS011;17110;52.602;12.998;2023-02-28T17:25:41;4.03;;;2.53;;
30299;SDS011;17110;52.602;12.998;2023-02-28T17:28:18;4.80;;;2.90;;
30299;SDS011;17110;52.602;12.998;2023-02-28T17:30:44;4.95;;;2.80;;
30299;SDS011;17110;52.602;12.998;2023-02-28T17:33:14;4.53;;;3.08;;
30299;SDS011;17110;52.602;12.998;2023-02-28T17:35:41;3.72;;;2.47;;
30299;SDS011;17110;52.602;12.998;2023-02-28T17:38:14;4.60;;;2.70;;
30299;SDS011;17110;52.602;12.998;2023-02-28T17:40:44;4.22;;;2.60;;
30299;SDS011;17110;52.602;12.998;2023-02-28T17:43:10;6.40;;;3.00;;
30299;SDS011;17110;52.602;12.998;2023-02-28T17:45:36;4.57;;;2.87;;
30299;SDS011;17110;52.602;12.998;2023-02-28T17:48:04;5.00;;;2.80;;
30299;SDS011;17110;52.602;12.998;2023-02-28T17:50:34;4.82;;;3.10;;
30299;SDS011;17110;52.602;12.998;2023-02-28T17:53:02;3.47;;;2.80;;
30299;SDS011;17110;52.602;12.998;2023-02-28T17:55:32;4.15;;;2.95;;
30299;SDS011;17110;52.602;12.998;2023-02-28T17:58:01;3.83;;;2.70;;
30299;SDS011;17110;52.602;12.998;2023-02-28T18:00:32;3.47;;;2.60;;
30299;SDS011;17110;52.602;12.998;2023-02-28T18:03:03;2.92;;;2.50;;
30299;SDS011;17110;52.602;12.998;2023-02-28T18:05:34;4.70;;;2.78;;
30299;SDS011;17110;52.602;12.998;2023-02-28T18:08:10;3.30;;;2.65;;
30299;SDS011;17110;52.602;12.998;2023-02-28T18:10:37;3.15;;;2.50;;
30299;SDS011;17110;52.602;12.998;2023-02-28T18:13:03;6.63;;;4.65;;
30299;SDS011;17110;52.602;12.998;2023-02-28T18:15:28;4.05;;;2.78;;
30299;SDS011;17110;52.602;12.998;2023-02-28T18:17:54;3.88;;;2.95;;
30299;SDS011;17110;52.602;12.998;2023-02-28T18:20:20;4.65;;;3.15;;
30299;SDS011;17110;52.602;12.998;2023-02-28T18:22:46;3.67;;;2.92;;
30299;SDS011;17110;52.602;12.998;2023-02-28T18:25:16;4.78;;;3.55;;
30299;SDS011;17110;52.602;12.998;2023-02-28T18:27:53;4.30;;;3.78;;
30299;SDS011;17110;52.602;12.998;2023-02-28T18:30:34;5.57;;;4.55;;
30299;SDS011;17110;52.602;12.998;2023-02-28T18:33:10;4.32;;;3.92;;
30299;SDS011;17110;52.602;12.998;2023-02-28T18:35:39;5.00;;;4.43;;
30299;SDS011;17110;52.602;12.998;2023-02-28T18:40:39;7.60;;;5.83;;
30299;SDS011;17110;52.602;12.998;2023-02-28T18:43:06;7.50;;;5.80;;
30299;SDS011;17110;52.602;12.998;2023-02-28T18:45:51;6.63;;;5.97;;
30299;SDS011;17110;52.602;12.998;2023-02-28T18:48:43;6.15;;;5.55;;
30299;SDS011;17110;52.602;12.998;2023-02-28T18:51:09;6.37;;;5.30;;
30299;SDS011;17110;52.602;12.998;2023-02-28T18:53:40;7.22;;;5.60;;
30299;SDS011;17110;52.602;12.998;2023-02-28T18:56:09;5.87;;;5.20;;
30299;SDS011;17110;52.602;12.998;2023-02-28T18:58:37;5.53;;;5.03;;
30299;SDS011;17110;52.602;12.998;2023-02-28T19:01:06;5.07;;;4.57;;
30299;SDS011;17110;52.602;12.998;2023-02-28T19:03:40;5.20;;;3.90;;
30299;SDS011;17110;52.602;12.998;2023-02-28T19:06:06;5.47;;;4.28;;
30299;SDS011;17110;52.602;12.998;2023-02-28T19:08:32;6.47;;;4.30;;
30299;SDS011;17110;52.602;12.998;2023-02-28T19:10:58;5.40;;;4.32;;
30299;SDS011;17110;52.602;12.998;2023-02-28T19:13:24;5.53;;;4.30;;
30299;SDS011;17110;52.602;12.998;2023-02-28T19:15:50;6.60;;;4.07;;
30299;SDS011;17110;52.602;12.998;2023-02-28T19:18:25;4.68;;;3.92;;
30299;SDS011;17110;52.602;12.998;2023-02-28T19:20:57;4.57;;;3.75;;
30299;SDS011;17110;52.602;12.998;2023-02-28T19:23:23;4.63;;;4.03;;
30299;SDS011;17110;52.602;12.998;2023-02-28T19:25:49;4.60;;;3.90;;
30299;SDS011;17110;52.602;12.998;2023-02-28T19:28:15;5.83;;;4.53;;